Time;durP1;ratioP1;P1;durP2;ratioP2;P2;SDS_P1;SDS_P2;PMS_P1;PMS_P2;Temp;Humidity;BMP_temperature;BMP_pressure;BME280_temperature;BME280_humidity;BME280_pressure;Samples;Min_cycle;Max_cycle;Signal;HPM_P1;HPM_P2
2022/11/05 00:09:38;;;;;;;0.10;0.00;;;;;;;14.04;61.27;99715.19;5048915;28;20047;-89
2022/11/05 00:17:37;;;;;;;1.08;0.00;;;;;;;13.76;62.97;99715.88;5048423;28;20105;-87
2022/11/05 00:20:04;;;;;;;0.05;0.00;;;;;;;13.73;64.42;99718.84;5049146;28;20119;-89
2022/11/05 00:25:17;;;;;;;0.10;0.00;;;;;;;13.87;61.69;99731.13;5047993;28;20140;-88
2022/11/05 00:27:53;;;;;;;0.00;0.00;;;;;;;13.79;61.64;99735.63;5032815;28;20029;-89
2022/11/05 00:30:22;;;;;;;;;;;;;;;13.67;53.01;99740.53;5047738;28;20087;-88
2022/11/05 00:32:49;;;;;;;0.00;0.00;;;;;;;13.72;66.92;99737.34;5047975;28;19908;-88
2022/11/05 00:35:17;;;;;;;0.00;0.00;;;;;;;13.77;64.00;99733.19;5048451;28;20206;-87
2022/11/05 00:37:43;;;;;;;0.00;0.00;;;;;;;13.66;65.14;99740.72;5050507;28;20052;-87
2022/11/05 00:40:10;;;;;;;0.10;0.00;;;;;;;13.54;65.42;99756.06;5030490;28;20080;-88
2022/11/05 00:45:23;;;;;;;0.00;0.00;;;;;;;13.39;68.36;99753.44;5049384;28;20110;-88
2022/11/05 00:50:33;;;;;;;0.35;0.00;;;;;;;13.68;62.97;99755.25;5048892;28;20055;-86
2022/11/05 00:52:59;;;;;;;0.52;0.00;;;;;;;13.76;62.42;99759.56;5047149;28;20037;-88
2022/11/05 00:55:29;;;;;;;0.00;0.00;;;;;;;13.81;57.95;99751.97;5048127;28;20033;-88
2022/11/05 00:57:56;;;;;;;0.00;0.00;;;;;;;13.89;59.70;99760.53;5045203;28;20032;-88
2022/11/05 01:00:23;;;;;;;0.00;0.00;;;;;;;13.71;63.06;99761.91;5048190;28;20060;-87
2022/11/05 01:02:48;;;;;;;0.03;0.00;;;;;;;13.69;61.70;99769.97;5046814;28;20037;-87
2022/11/05 01:05:14;;;;;;;0.00;0.00;;;;;;;13.73;57.53;99765.97;5048323;28;20025;-88
2022/11/05 01:07:39;;;;;;;0.00;0.00;;;;;;;13.86;58.00;99768.75;5046423;28;20029;-86
2022/11/05 01:10:05;;;;;;;0.00;0.00;;;;;;;14.07;55.46;99765.41;5048039;28;20037;-87
2022/11/05 01:12:31;;;;;;;1.58;0.00;;;;;;;14.15;51.17;99785.44;5050166;28;20031;-86
2022/11/05 01:14:56;;;;;;;0.00;0.00;;;;;;;14.17;56.46;99765.13;5035960;28;20448;-88
2022/11/05 01:17:22;;;;;;;0.75;0.00;;;;;;;14.02;54.52;99770.38;5047780;28;20480;-89
2022/11/05 01:19:47;;;;;;;0.00;0.00;;;;;;;13.98;54.65;99768.31;5048169;28;20025;-90
2022/11/05 01:22:13;;;;;;;0.57;0.00;;;;;;;13.92;56.17;99767.22;5047561;28;20068;-89
2022/11/05 01:24:38;;;;;;;0.98;0.00;;;;;;;13.92;55.54;99770.66;5046907;28;20075;-87
2022/11/05 01:27:04;;;;;;;0.40;0.00;;;;;;;13.87;58.01;99780.06;5046902;28;20044;-90
2022/11/05 01:29:29;;;;;;;0.00;0.00;;;;;;;13.81;57.27;99773.72;5057690;28;20036;-88
2022/11/05 01:31:54;;;;;;;0.00;0.00;;;;;;;13.75;58.90;99774.47;5046565;28;20037;-87
2022/11/05 01:34:20;;;;;;;0.17;0.00;;;;;;;13.70;59.87;99771.59;5046209;28;20041;-89
2022/11/05 01:36:45;;;;;;;0.00;0.00;;;;;;;13.70;57.56;99765.56;5044831;28;20033;-89
2022/11/05 01:39:11;;;;;;;0.00;0.00;;;;;;;13.65;56.46;99758.25;5047385;28;20050;-89
2022/11/05 01:41:36;;;;;;;0.00;0.00;;;;;;;13.69;57.62;99754.28;5029602;28;20115;-88
2022/11/05 01:44:02;;;;;;;0.00;0.00;;;;;;;13.73;56.16;99754.69;5035219;28;20032;-90
2022/11/05 01:46:40;;;;;;;0.98;0.00;;;;;;;13.77;52.66;99740.25;5046650;28;20469;-88
2022/11/05 01:49:32;;;;;;;0.00;0.00;;;;;;;13.71;50.14;99735.72;5046796;28;20105;-89
2022/11/05 01:52:01;;;;;;;0.10;0.00;;;;;;;13.74;54.15;99744.03;5041863;28;20041;-88
2022/11/05 01:54:31;;;;;;;0.03;0.00;;;;;;;13.79;53.91;99733.03;5046876;28;20061;-88
2022/11/05 01:57:04;;;;;;;0.00;0.00;;;;;;;13.81;51.28;99736.25;5048598;28;20044;-88
2022/11/05 01:59:36;;;;;;;0.00;0.00;;;;;;;13.79;54.51;99739.06;5033032;28;20522;-88
2022/11/05 02:02:02;;;;;;;0.10;0.00;;;;;;;13.81;53.75;99728.41;5028915;28;20041;-89
2022/11/05 02:04:35;;;;;;;0.10;0.00;;;;;;;13.82;50.48;99727.41;5046936;28;20072;-87
2022/11/05 02:07:04;;;;;;;0.00;0.00;;;;;;;13.80;51.07;99732.03;5026678;28;20041;-88
2022/11/05 02:09:40;;;;;;;0.00;0.00;;;;;;;13.75;53.27;99742.22;5044966;28;20029;-90
2022/11/05 02:12:08;;;;;;;0.00;0.00;;;;;;;13.75;52.63;99742.22;5046638;28;20041;-88
2022/11/05 02:14:33;;;;;;;0.10;0.00;;;;;;;13.83;53.09;99739.50;5039469;28;20051;-87
2022/11/05 02:17:14;;;;;;;1.20;0.00;;;;;;;13.78;52.47;99739.25;5046895;28;20043;-88
2022/11/05 02:20:17;;;;;;;0.00;0.00;;;;;;;13.88;47.54;99742.41;5046602;28;20037;-87
2022/11/05 02:23:13;;;;;;;0.00;0.00;;;;;;;13.80;48.39;99748.53;5035358;28;20044;-87
2022/11/05 02:25:58;;;;;;;0.00;0.00;;;;;;;13.76;53.18;99755.13;5024321;28;20037;-86
2022/11/05 02:28:45;;;;;;;0.00;0.00;;;;;;;13.83;46.82;99761.28;5046945;28;20069;-85
2022/11/05 02:31:19;;;;;;;0.00;0.00;;;;;;;13.79;49.90;99753.97;5056564;28;20033;-85
2022/11/05 02:34:22;;;;;;;0.08;0.00;;;;;;;13.72;48.57;99750.44;5046353;28;20032;-88
2022/11/05 02:37:14;;;;;;;0.00;0.00;;;;;;;13.75;46.72;99758.75;5058653;28;20033;-83
2022/11/05 02:40:01;;;;;;;0.00;0.00;;;;;;;13.77;49.64;99745.47;5058097;28;20444;-88
2022/11/05 02:42:35;;;;;;;;;;;;;;;13.77;45.68;99748.09;5051362;28;20025;-87
2022/11/05 02:45:17;;;;;;;0.00;0.00;;;;;;;13.75;47.34;99771.03;5061951;28;19912;-86
2022/11/05 02:47:50;;;;;;;0.00;0.00;;;;;;;13.73;54.34;99775.63;5032789;28;20396;-87
2022/11/05 02:50:45;;;;;;;0.10;0.00;;;;;;;13.73;48.92;99781.69;5051011;28;20041;-87
2022/11/05 02:53:14;;;;;;;0.00;0.00;;;;;;;13.77;50.31;99779.50;5033243;28;20038;-88
2022/11/05 02:55:55;;;;;;;0.00;0.00;;;;;;;13.74;49.00;99783.31;5032397;28;20029;-87
2022/11/05 02:58:21;;;;;;;0.00;0.00;;;;;;;13.75;51.62;99773.66;5050261;28;20055;-87
2022/11/05 03:00:51;;;;;;;0.00;0.00;;;;;;;13.77;50.95;99780.31;5060646;28;20535;-87
2022/11/05 03:03:36;;;;;;;0.10;0.00;;;;;;;13.74;46.65;99778.06;5051450;28;20119;-87
2022/11/05 03:06:18;;;;;;;0.10;0.00;;;;;;;13.73;48.37;99768.59;5049555;28;20036;-89
2022/11/05 03:09:28;;;;;;;0.13;0.00;;;;;;;13.78;46.11;99781.13;5050666;28;20033;-88
2022/11/05 03:12:15;;;;;;;1.75;0.00;;;;;;;13.78;45.52;99781.94;5038685;28;20055;-88
2022/11/05 03:14:52;;;;;;;0.00;0.00;;;;;;;13.83;51.75;99763.09;5032710;28;20055;-87
2022/11/05 03:17:41;;;;;;;0.10;0.00;;;;;;;13.69;50.81;99769.97;5039328;28;20037;-87
2022/11/05 03:20:14;;;;;;;0.00;0.00;;;;;;;13.57;51.18;99780.06;5050592;28;20056;-88
2022/11/05 03:22:50;;;;;;;0.00;0.00;;;;;;;13.59;49.18;99770.25;5032075;28;20555;-88
2022/11/05 03:25:20;;;;;;;0.00;0.00;;;;;;;13.62;49.72;99766.44;5036977;28;20025;-86
2022/11/05 03:27:49;;;;;;;0.00;0.00;;;;;;;13.65;50.32;99773.94;5050330;28;20508;-87
2022/11/05 03:30:17;;;;;;;0.10;0.00;;;;;;;13.72;50.35;99779.25;5052347;28;20039;-85
2022/11/05 03:32:52;;;;;;;0.63;0.00;;;;;;;13.71;50.98;99773.19;5048989;28;20036;-87
2022/11/05 03:35:23;;;;;;;0.00;0.00;;;;;;;13.66;51.04;99780.00;5030576;28;20116;-88
2022/11/05 03:37:52;;;;;;;0.00;0.00;;;;;;;13.67;48.59;99782.44;5050298;28;20263;-88
2022/11/05 03:40:22;;;;;;;0.10;0.00;;;;;;;13.78;47.22;99781.13;5050409;28;20091;-86
2022/11/05 03:42:52;;;;;;;0.17;0.00;;;;;;;13.72;51.58;99779.25;5050682;28;20126;-86
2022/11/05 03:45:24;;;;;;;0.03;0.00;;;;;;;13.68;50.08;99783.25;5049477;28;20040;-86
2022/11/05 03:47:52;;;;;;;0.00;0.00;;;;;;;13.67;49.31;99785.06;5049354;28;20449;-89
2022/11/05 03:50:21;;;;;;;1.48;0.00;;;;;;;13.77;48.95;99784.75;5049396;28;20113;-88
2022/11/05 03:52:52;;;;;;;0.00;0.00;;;;;;;13.78;48.40;99781.94;5050508;28;20420;-90
2022/11/05 03:55:23;;;;;;;0.00;0.00;;;;;;;13.85;47.79;99785.47;5058110;28;20044;-90
2022/11/05 03:57:52;;;;;;;0.40;0.00;;;;;;;13.82;48.98;99785.84;5062466;28;20028;-88
2022/11/05 04:00:18;;;;;;;0.13;0.00;;;;;;;13.79;50.26;99793.22;5061100;28;20044;-90
2022/11/05 04:02:43;;;;;;;1.60;0.00;;;;;;;13.76;50.50;99786.56;5060747;28;20032;-89
2022/11/05 04:05:09;;;;;;;0.00;0.00;;;;;;;13.73;49.67;99786.09;5040241;28;20037;-87
2022/11/05 04:18:31;;;;;;;0.35;0.00;;;;;;;13.77;48.41;99800.47;5035941;28;20028;-88
2022/11/05 04:26:24;;;;;;;5.05;0.17;;;;;;;13.86;48.54;99802.00;5049370;28;20562;-87
2022/11/05 04:31:34;;;;;;;0.00;0.00;;;;;;;13.93;47.36;99802.91;5048467;28;20109;-87
2022/11/05 04:34:00;;;;;;;1.52;0.00;;;;;;;13.87;48.35;99814.91;5049080;28;20494;-89
2022/11/05 04:36:26;;;;;;;0.00;0.00;;;;;;;13.86;47.21;99822.94;5049189;28;20446;-88
2022/11/05 04:38:51;;;;;;;0.28;0.00;;;;;;;13.83;47.84;99821.50;5029662;28;20021;-86
2022/11/05 04:41:17;;;;;;;0.00;0.00;;;;;;;13.86;46.36;99817.69;5049947;28;20361;-87
2022/11/05 04:43:43;;;;;;;0.93;0.00;;;;;;;13.88;46.01;99821.78;5038507;28;20060;-86
2022/11/05 04:46:09;;;;;;;0.68;0.00;;;;;;;13.86;48.43;99825.56;5053803;28;20511;-87
2022/11/05 04:48:36;;;;;;;0.00;0.00;;;;;;;13.86;46.85;99830.78;5034645;28;20045;-85
2022/11/05 04:51:02;;;;;;;0.03;0.00;;;;;;;13.84;46.38;99835.41;5049251;28;20033;-87
2022/11/05 04:53:28;;;;;;;0.77;0.00;;;;;;;13.94;48.19;99830.72;5046543;28;20029;-86
2022/11/05 04:55:53;;;;;;;0.40;0.00;;;;;;;13.84;47.45;99836.22;5047827;28;20499;-86
2022/11/05 04:58:19;;;;;;;0.00;0.00;;;;;;;13.98;47.48;99833.78;5030118;28;20032;-88
2022/11/05 05:00:44;;;;;;;0.17;0.00;;;;;;;14.05;44.61;99838.13;5046990;28;20142;-88
2022/11/05 05:03:10;;;;;;;0.10;0.00;;;;;;;14.09;47.55;99841.19;5030223;28;20040;-88
2022/11/05 05:05:35;;;;;;;0.00;0.00;;;;;;;14.13;46.65;99848.50;5048714;28;20494;-88
2022/11/05 05:08:02;;;;;;;0.00;0.00;;;;;;;14.12;47.64;99839.00;5048630;28;20499;-88
2022/11/05 05:10:27;;;;;;;0.13;0.00;;;;;;;14.10;45.28;99846.25;5048965;28;20106;-88
2022/11/05 05:12:53;;;;;;;0.00;0.00;;;;;;;14.06;46.25;99849.41;5046453;28;20045;-88
2022/11/05 05:15:18;;;;;;;0.52;0.00;;;;;;;14.14;46.08;99855.38;5048811;28;20138;-88
2022/11/05 05:17:49;;;;;;;0.28;0.00;;;;;;;14.19;43.20;99857.41;5048954;28;20037;-89
2022/11/05 05:22:58;;;;;;;0.22;0.00;;;;;;;14.12;47.29;99857.34;5047164;28;20059;-87
2022/11/05 05:25:24;;;;;;;0.40;0.00;;;;;;;14.26;45.33;99866.16;5048807;28;20017;-87
2022/11/05 05:27:50;;;;;;;0.00;0.00;;;;;;;14.19;46.13;99876.56;5029867;28;20102;-87
2022/11/05 05:30:16;;;;;;;0.10;0.00;;;;;;;14.23;44.10;99890.09;5047151;28;20472;-89
2022/11/05 05:32:41;;;;;;;0.05;0.00;;;;;;;14.26;45.47;99877.47;5055849;28;20036;-87
2022/11/05 05:35:07;;;;;;;0.00;0.00;;;;;;;14.34;44.38;99878.34;5034123;28;20029;-87
2022/11/05 05:37:32;;;;;;;1.45;0.00;;;;;;;14.29;45.41;99898.06;5048214;28;20095;-88
2022/11/05 05:39:58;;;;;;;0.13;0.00;;;;;;;14.32;42.46;99891.66;5032637;28;20432;-88
2022/11/05 05:42:23;;;;;;;0.30;0.00;;;;;;;14.32;44.30;99896.06;5046784;28;20500;-88
2022/11/05 05:44:49;;;;;;;0.00;0.00;;;;;;;14.26;45.29;99902.84;5053211;28;20040;-85
2022/11/05 05:47:14;;;;;;;0.77;0.15;;;;;;;14.37;42.02;99905.00;5047328;28;20032;-87
2022/11/05 05:49:39;;;;;;;0.90;0.03;;;;;;;14.23;46.46;99906.66;5047820;28;20021;-87
2022/11/05 05:52:05;;;;;;;1.00;0.10;;;;;;;14.01;49.41;99915.41;5047947;28;20041;-87
2022/11/05 05:54:30;;;;;;;2.10;0.30;;;;;;;13.78;51.42;99925.94;5046591;28;20409;-87
2022/11/05 05:56:56;;;;;;;0.82;0.25;;;;;;;13.77;48.57;99933.97;5027915;28;20473;-87
2022/11/05 05:59:22;;;;;;;0.85;0.10;;;;;;;14.03;48.17;99931.78;5047236;28;20021;-88
2022/11/05 06:01:48;;;;;;;0.65;0.00;;;;;;;13.99;49.77;99922.66;5046667;28;20483;-87
2022/11/05 06:04:14;;;;;;;0.10;0.00;;;;;;;13.75;47.57;99938.56;5046774;28;20029;-87
2022/11/05 06:06:39;;;;;;;0.98;0.00;;;;;;;13.92;48.20;99935.63;5048108;28;20029;-87
2022/11/05 06:09:05;;;;;;;0.15;0.00;;;;;;;14.00;49.09;99954.88;5048779;28;20033;-87
2022/11/05 06:11:30;;;;;;;0.30;0.00;;;;;;;13.91;50.65;99936.63;5050505;28;20039;-87
2022/11/05 06:13:56;;;;;;;0.10;0.00;;;;;;;13.74;52.17;99956.09;5033457;28;20119;-86
2022/11/05 06:16:22;;;;;;;0.25;0.00;;;;;;;13.80;50.81;99965.03;5053792;28;20039;-90
2022/11/05 06:18:48;;;;;;;0.00;0.00;;;;;;;13.70;52.43;99951.41;5051531;28;20032;-87
2022/11/05 06:21:15;;;;;;;0.10;0.00;;;;;;;13.58;52.69;99975.38;5050332;28;20089;-87
2022/11/05 06:23:43;;;;;;;0.47;0.10;;;;;;;13.73;50.55;99953.66;5046196;28;20462;-88
2022/11/05 06:26:14;;;;;;;0.00;0.00;;;;;;;13.88;50.10;99965.78;5050919;28;20045;-88
2022/11/05 06:28:41;;;;;;;0.10;0.00;;;;;;;14.04;48.05;99972.69;5047099;28;20113;-88
2022/11/05 06:31:08;;;;;;;0.05;0.00;;;;;;;14.17;49.29;99978.13;5057869;28;20524;-88
2022/11/05 06:33:33;;;;;;;0.00;0.00;;;;;;;14.02;50.81;99974.66;5043095;28;20049;-88
2022/11/05 06:36:00;;;;;;;0.10;0.00;;;;;;;13.98;49.79;99978.63;5040861;28;20052;-88
2022/11/05 06:38:28;;;;;;;0.00;0.00;;;;;;;13.97;50.09;99987.47;5033197;28;20037;-87
2022/11/05 06:40:53;;;;;;;0.47;0.00;;;;;;;14.00;51.03;99991.56;5040484;28;20044;-87
2022/11/05 06:43:19;;;;;;;0.00;0.00;;;;;;;13.76;51.67;99974.25;5057331;28;20082;-86
2022/11/05 06:45:44;;;;;;;0.80;0.00;;;;;;;13.77;51.83;99987.16;5058794;28;20036;-87
2022/11/05 06:48:10;;;;;;;0.00;0.00;;;;;;;13.88;49.25;99985.94;5039835;28;20109;-88
2022/11/05 06:50:35;;;;;;;0.00;0.00;;;;;;;14.05;45.11;99995.28;5061765;28;20042;-86
2022/11/05 06:53:03;;;;;;;0.00;0.00;;;;;;;14.17;46.23;99983.38;5041035;28;20448;-86
2022/11/05 06:55:29;;;;;;;0.20;0.00;;;;;;;14.35;44.67;100000.53;5059124;28;20106;-86
2022/11/05 06:57:55;;;;;;;0.75;0.00;;;;;;;14.39;47.32;100009.66;5059790;28;20108;-87
2022/11/05 07:00:21;;;;;;;0.00;0.00;;;;;;;14.27;49.57;100004.84;5055944;28;20068;-87
2022/11/05 07:02:47;;;;;;;0.20;0.00;;;;;;;14.05;51.71;100011.00;5035764;28;20056;-88
2022/11/05 07:05:13;;;;;;;0.10;0.00;;;;;;;13.87;51.55;100013.09;5050540;28;20040;-87
2022/11/05 07:07:40;;;;;;;0.80;0.00;;;;;;;13.88;53.32;100031.25;5032541;28;20029;-86
2022/11/05 07:10:09;;;;;;;0.10;0.00;;;;;;;13.69;54.92;100037.00;5051090;28;20040;-88
2022/11/05 07:12:35;;;;;;;0.15;0.00;;;;;;;13.72;53.25;100033.19;5031446;28;20400;-87
2022/11/05 07:15:00;;;;;;;0.10;0.00;;;;;;;13.95;53.26;100036.59;5057048;28;20036;-89
2022/11/05 07:17:26;;;;;;;0.10;0.00;;;;;;;13.87;56.00;100041.91;5055441;28;20044;-88
2022/11/05 07:19:51;;;;;;;0.10;0.00;;;;;;;13.79;54.89;100044.59;5032663;28;20021;-87
2022/11/05 07:22:17;;;;;;;0.50;0.00;;;;;;;13.93;53.29;100043.81;5049213;28;20407;-88
2022/11/05 07:24:45;;;;;;;0.30;0.00;;;;;;;14.11;52.35;100046.13;5049675;28;20090;-86
2022/11/05 07:27:14;;;;;;;0.52;0.00;;;;;;;14.04;53.99;100058.31;5049341;28;20473;-86
2022/11/05 07:29:39;;;;;;;0.10;0.00;;;;;;;14.02;51.07;100061.09;5049655;28;20033;-88
2022/11/05 07:32:05;;;;;;;0.25;0.00;;;;;;;13.95;51.35;100055.75;5056318;28;20060;-86
2022/11/05 07:34:30;;;;;;;0.10;0.00;;;;;;;14.14;47.18;100051.84;5050379;28;20480;-86
2022/11/05 07:36:56;;;;;;;0.22;0.00;;;;;;;14.42;49.00;100061.75;5048924;28;20621;-89
2022/11/05 07:39:21;;;;;;;0.10;0.00;;;;;;;14.43;48.92;100064.19;5050409;28;20021;-86
2022/11/05 07:41:46;;;;;;;0.95;0.00;;;;;;;14.44;49.36;100049.28;5049877;28;20106;-89
2022/11/05 07:44:13;;;;;;;0.30;0.00;;;;;;;14.35;49.31;100071.28;5038434;28;20033;-88
2022/11/05 07:46:40;;;;;;;0.13;0.00;;;;;;;14.37;49.42;100082.41;5047912;28;20033;-86
2022/11/05 07:49:06;;;;;;;0.32;0.00;;;;;;;14.26;50.18;100081.84;5051534;28;20045;-87
2022/11/05 07:51:31;;;;;;;2.40;0.00;;;;;;;14.18;50.98;100076.66;5050092;28;20108;-88
2022/11/05 07:53:57;;;;;;;0.03;0.00;;;;;;;14.15;52.15;100094.56;5049889;28;20459;-87
2022/11/05 07:56:22;;;;;;;1.42;0.00;;;;;;;14.19;46.55;100087.97;5032258;28;20049;-86
2022/11/05 07:58:48;;;;;;;0.00;0.00;;;;;;;14.28;51.09;100086.91;5053486;28;20078;-89
2022/11/05 08:01:13;;;;;;;1.77;0.22;;;;;;;14.16;51.90;100076.06;5050760;28;20029;-88
2022/11/05 08:03:39;;;;;;;0.20;0.00;;;;;;;14.06;51.75;100087.75;5040962;28;20337;-88
2022/11/05 08:06:05;;;;;;;0.75;0.00;;;;;;;14.29;48.86;100086.72;5049454;28;20131;-88
2022/11/05 08:08:30;;;;;;;0.38;0.00;;;;;;;14.21;51.53;100078.13;5047518;28;20134;-87
2022/11/05 08:11:10;;;;;;;0.15;0.00;;;;;;;14.35;43.68;100069.47;5047921;28;20029;-88
2022/11/05 08:13:36;;;;;;;0.10;0.00;;;;;;;14.48;47.42;100090.69;5037772;28;20047;-85
2022/11/05 08:16:02;;;;;;;0.30;0.00;;;;;;;14.54;45.92;100097.03;5047415;28;20497;-86
2022/11/05 08:18:30;;;;;;;3.17;0.10;;;;;;;14.49;46.33;100105.44;5037570;28;20021;-85
2022/11/05 08:21:03;;;;;;;0.45;0.00;;;;;;;14.64;44.81;100097.59;5057073;28;20463;-88
2022/11/05 08:23:30;;;;;;;0.00;0.00;;;;;;;14.70;47.74;100088.97;5030461;28;20122;-86
2022/11/05 08:25:56;;;;;;;0.98;0.00;;;;;;;14.57;47.74;100092.25;5048025;28;20489;-87
2022/11/05 08:28:23;;;;;;;0.08;0.00;;;;;;;14.60;46.44;100086.63;5028836;28;20373;-87
2022/11/05 08:30:52;;;;;;;0.65;0.00;;;;;;;14.63;44.24;100097.75;5030252;28;20032;-88
2022/11/05 08:33:19;;;;;;;0.32;0.00;;;;;;;14.67;44.59;100097.19;5056616;28;20037;-86
2022/11/05 08:35:45;;;;;;;0.30;0.00;;;;;;;14.67;46.24;100105.06;5040533;28;20040;-86
2022/11/05 08:38:13;;;;;;;0.80;0.00;;;;;;;14.65;44.84;100106.25;5022916;28;20103;-87
2022/11/05 08:40:40;;;;;;;0.10;0.03;;;;;;;14.76;44.00;100104.00;5049395;28;20488;-87
2022/11/05 08:43:07;;;;;;;0.00;0.00;;;;;;;14.83;45.47;100119.81;5059633;28;20141;-86
2022/11/05 08:45:33;;;;;;;2.95;0.00;;;;;;;14.77;45.38;100115.28;5049899;28;20464;-87
2022/11/05 08:48:04;;;;;;;0.10;0.00;;;;;;;14.83;47.64;100118.00;5066938;28;20123;-87
2022/11/05 08:50:30;;;;;;;0.95;0.00;;;;;;;14.77;48.86;100126.59;5063117;28;20033;-87
2022/11/05 08:52:56;;;;;;;0.20;0.00;;;;;;;14.72;48.99;100128.13;5034779;28;20044;-86
2022/11/05 08:55:22;;;;;;;0.40;0.00;;;;;;;14.76;48.47;100130.22;5019519;28;20393;-88
2022/11/05 08:57:47;;;;;;;0.10;0.00;;;;;;;14.78;46.88;100122.16;5066993;28;20051;-86
2022/11/05 09:00:14;;;;;;;0.15;0.00;;;;;;;14.77;46.55;100123.16;5055974;28;20120;-88
2022/11/05 09:02:40;;;;;;;0.10;0.00;;;;;;;14.78;49.98;100135.28;5049721;28;20434;-87
2022/11/05 09:05:06;;;;;;;0.40;0.00;;;;;;;14.82;50.25;100132.13;5047883;28;20125;-87
2022/11/05 09:07:31;;;;;;;0.25;0.00;;;;;;;14.84;50.68;100124.88;5046481;28;20158;-86
2022/11/05 09:09:57;;;;;;;0.38;0.00;;;;;;;14.82;51.91;100137.38;5027368;28;20127;-85
2022/11/05 09:12:22;;;;;;;0.68;0.00;;;;;;;14.77;52.45;100136.28;5051413;28;20033;-87
2022/11/05 09:14:48;;;;;;;0.88;0.00;;;;;;;14.84;52.50;100151.13;5050934;28;20048;-87
2022/11/05 09:17:19;;;;;;;0.85;0.00;;;;;;;14.77;51.51;100144.13;5050143;28;20036;-87
2022/11/05 09:19:44;;;;;;;0.10;0.00;;;;;;;14.76;52.19;100145.13;5047757;28;20035;-87
2022/11/05 09:22:11;;;;;;;0.25;0.00;;;;;;;14.82;51.16;100147.84;5051908;28;20407;-87
2022/11/05 09:24:41;;;;;;;0.08;0.00;;;;;;;14.92;48.60;100156.28;5048748;28;20059;-86
2022/11/05 09:27:14;;;;;;;1.13;0.10;;;;;;;14.99;44.57;100155.56;5048785;28;20052;-88
2022/11/05 09:29:41;;;;;;;0.13;0.00;;;;;;;15.06;43.40;100162.53;5048774;28;20025;-82
2022/11/05 09:32:06;;;;;;;0.20;0.00;;;;;;;15.04;44.81;100156.66;5053947;28;20124;-84
2022/11/05 09:34:32;;;;;;;0.50;0.00;;;;;;;15.03;44.95;100160.28;5056164;28;20447;-82
2022/11/05 09:36:57;;;;;;;0.15;0.00;;;;;;;15.04;44.40;100156.66;5059332;28;20065;-82
2022/11/05 09:39:23;;;;;;;1.00;0.00;;;;;;;15.14;44.30;100156.34;5060584;28;20345;-82
2022/11/05 09:41:52;;;;;;;0.32;0.10;;;;;;;15.13;45.92;100149.47;5056941;28;20067;-80
2022/11/05 09:44:22;;;;;;;0.63;0.08;;;;;;;15.09;44.98;100156.13;5051375;28;20036;-82
2022/11/05 09:46:57;;;;;;;0.10;0.00;;;;;;;15.11;44.92;100154.94;5052504;28;20116;-80
2022/11/05 09:49:28;;;;;;;0.57;0.20;;;;;;;15.14;43.15;100172.09;5060354;28;20025;-82
2022/11/05 09:51:56;;;;;;;0.65;0.00;;;;;;;15.21;45.95;100173.00;5049234;28;20037;-81
2022/11/05 09:54:28;;;;;;;0.35;0.15;;;;;;;15.19;46.26;100161.88;5061277;28;20043;-82
2022/11/05 09:56:54;;;;;;;0.95;0.00;;;;;;;15.24;43.29;100164.78;5046601;28;20106;-88
2022/11/05 09:59:44;;;;;;;0.80;0.00;;;;;;;15.28;40.31;100176.53;5057784;28;20051;-85
2022/11/05 10:02:17;;;;;;;0.30;0.00;;;;;;;15.33;40.79;100170.75;5030090;28;20057;-87
2022/11/05 10:04:45;;;;;;;0.20;0.00;;;;;;;15.33;43.18;100170.75;5048132;28;20512;-86
2022/11/05 10:07:15;;;;;;;0.52;0.10;;;;;;;15.32;42.82;100177.81;5046934;28;20033;-90
2022/11/05 10:09:46;;;;;;;0.20;0.00;;;;;;;15.43;42.96;100172.09;5044258;28;20036;-86
2022/11/05 10:12:24;;;;;;;1.20;0.40;;;;;;;15.45;40.01;100177.97;5041607;28;20037;-88
2022/11/05 10:15:02;;;;;;;0.32;0.00;;;;;;;15.46;42.42;100182.25;5029577;28;20396;-86
2022/11/05 10:17:29;;;;;;;0.63;0.10;;;;;;;15.47;45.36;100180.44;5047166;28;20370;-87
2022/11/05 10:20:26;;;;;;;0.10;0.00;;;;;;;15.43;43.29;100187.84;5047506;28;20044;-91
2022/11/05 10:22:59;;;;;;;0.10;0.00;;;;;;;15.43;41.95;100190.47;5016628;28;20041;-88
2022/11/05 10:25:30;;;;;;;0.10;0.00;;;;;;;15.46;43.83;100195.38;5034140;28;20037;-86
2022/11/05 10:27:56;;;;;;;0.10;0.00;;;;;;;15.50;42.52;100201.88;5053014;28;20041;-87
2022/11/05 10:30:22;;;;;;;1.17;0.00;;;;;;;15.54;43.42;100191.84;5032509;28;20021;-87
2022/11/05 10:32:53;;;;;;;0.80;0.00;;;;;;;15.56;43.81;100200.34;5046389;28;20129;-88
2022/11/05 10:35:23;;;;;;;0.70;0.00;;;;;;;15.62;43.29;100199.63;5050004;28;20020;-89
2022/11/05 10:37:50;;;;;;;0.10;0.00;;;;;;;15.62;45.83;100204.88;5029094;28;20036;-88
2022/11/05 10:40:55;;;;;;;0.10;0.00;;;;;;;15.56;41.98;100203.81;5046813;28;20091;-88
2022/11/05 10:43:34;;;;;;;0.50;0.00;;;;;;;15.69;42.75;100199.69;4998503;28;20037;-90
2022/11/05 10:46:23;;;;;;;0.00;0.00;;;;;;;15.72;40.82;100194.06;5045576;28;20162;-87
2022/11/05 10:48:58;;;;;;;0.28;0.00;;;;;;;15.75;43.31;100199.78;5047122;28;20036;-87
2022/11/05 10:51:24;;;;;;;0.65;0.00;;;;;;;15.78;45.97;100203.84;5050865;28;20531;-85
2022/11/05 10:53:56;;;;;;;0.10;0.00;;;;;;;15.82;45.79;100210.38;5039466;28;20053;-87
2022/11/05 10:56:36;;;;;;;0.50;0.00;;;;;;;15.78;45.84;100198.59;5049993;28;20121;-86
2022/11/05 10:59:04;;;;;;;0.10;0.00;;;;;;;15.84;51.23;100211.00;5044794;28;20476;-86
2022/11/05 11:01:31;;;;;;;0.98;0.00;;;;;;;15.86;46.88;100206.38;5046758;28;20033;-87
2022/11/05 11:04:22;;;;;;;0.00;0.00;;;;;;;15.87;46.24;100202.75;5050184;28;20269;-89
2022/11/05 11:06:51;;;;;;;0.15;0.00;;;;;;;15.86;51.77;100190.59;5055716;28;20028;-90
2022/11/05 11:09:21;;;;;;;0.10;0.00;;;;;;;15.87;50.66;100187.81;5054460;28;20032;-89
2022/11/05 11:11:55;;;;;;;0.03;0.00;;;;;;;15.79;50.70;100180.03;5048464;28;20123;-91
2022/11/05 11:14:21;;;;;;;0.10;0.00;;;;;;;15.83;53.59;100178.66;5043794;28;20048;-92
2022/11/05 11:16:52;;;;;;;0.10;0.00;;;;;;;15.81;51.12;100169.34;5038716;28;20538;-91
2022/11/05 11:19:28;;;;;;;0.08;0.00;;;;;;;15.75;47.90;100173.50;5051045;28;20070;-91
2022/11/05 11:22:02;;;;;;;0.88;0.00;;;;;;;15.86;52.00;100175.66;5036951;28;20054;-89
2022/11/05 11:24:38;;;;;;;0.20;0.00;;;;;;;15.82;55.16;100182.28;5050199;28;20103;-87
2022/11/05 11:27:09;;;;;;;0.55;0.20;;;;;;;15.89;50.64;100191.06;5049823;28;20113;-90
2022/11/05 11:29:38;;;;;;;0.65;0.10;;;;;;;15.93;47.51;100186.25;5033135;28;20021;-90
2022/11/05 11:32:12;;;;;;;0.10;0.00;;;;;;;15.93;51.29;100194.13;5059563;28;20143;-87
2022/11/05 11:34:39;;;;;;;0.45;0.00;;;;;;;15.87;52.19;100197.50;5048935;28;20033;-88
2022/11/05 11:37:40;;;;;;;1.02;0.10;;;;;;;15.83;51.45;100196.22;5040263;28;20055;-86
2022/11/05 11:40:16;;;;;;;0.22;0.10;;;;;;;15.81;50.40;100198.22;5061397;28;20051;-88
2022/11/05 11:42:44;;;;;;;;;;;;;;;15.88;44.01;100175.47;5066063;28;20132;-88
2022/11/05 11:45:17;;;;;;;0.15;0.00;;;;;;;16.06;49.50;100169.81;5039807;28;19917;-87
2022/11/05 11:47:46;;;;;;;1.05;0.00;;;;;;;16.19;46.93;100175.16;5057657;28;20611;-87
2022/11/05 11:50:41;;;;;;;0.10;0.00;;;;;;;16.52;39.32;100165.78;5043226;28;20039;-88
2022/11/05 11:53:19;;;;;;;0.10;0.00;;;;;;;16.63;40.81;100169.69;5042737;28;20025;-86
2022/11/05 11:56:11;;;;;;;0.90;0.00;;;;;;;16.64;41.17;100179.22;5057208;28;20059;-87
2022/11/05 11:58:43;;;;;;;0.00;0.00;;;;;;;16.64;43.10;100170.50;5056789;28;20107;-89
2022/11/05 12:01:30;;;;;;;0.32;0.00;;;;;;;16.52;42.74;100168.41;5056292;28;20065;-88
2022/11/05 12:04:02;;;;;;;0.10;0.00;;;;;;;16.62;43.56;100169.88;5059214;28;20059;-91
2022/11/05 12:06:54;;;;;;;1.55;0.00;;;;;;;16.59;41.30;100161.34;5051489;28;20495;-89
2022/11/05 12:10:03;;;;;;;0.10;0.00;;;;;;;16.59;39.77;100164.00;5020504;28;20116;-85
2022/11/05 12:12:42;;;;;;;0.55;0.00;;;;;;;16.57;40.12;100175.69;5006651;28;20164;-89
2022/11/05 12:15:20;;;;;;;0.10;0.00;;;;;;;16.47;45.86;100178.69;5006861;28;20089;-87
2022/11/05 12:18:03;;;;;;;0.10;0.00;;;;;;;16.51;45.78;100173.84;4992926;28;20501;-86
2022/11/05 12:20:54;;;;;;;0.20;0.00;;;;;;;16.32;44.74;100172.69;5006289;28;20101;-86
2022/11/05 12:23:34;;;;;;;0.50;0.00;;;;;;;16.25;50.52;100179.69;5005430;28;20156;-85
2022/11/05 12:26:08;;;;;;;0.50;0.08;;;;;;;16.11;52.53;100176.09;5001739;28;20129;-85
2022/11/05 12:28:52;;;;;;;2.35;0.10;;;;;;;16.02;54.28;100172.00;5005891;28;20213;-84